createdAt,value
2023-02-05T13:33:53.342Z,15.9
2023-02-05T13:38:53.288Z,2.9
2023-02-05T13:43:53.260Z,2.9
2023-02-05T14:19:57.834Z,3.2
2023-02-05T14:24:57.746Z,3.2
2023-02-05T14:29:57.716Z,4.2
2023-02-05T14:34:57.759Z,4.2
2023-02-05T14:39:57.777Z,4.1
2023-02-05T14:44:57.694Z,4.1
2023-02-05T14:49:57.678Z,4.1
2023-02-05T14:54:57.728Z,4.1
2023-02-05T14:59:57.727Z,4.1
2023-02-05T15:04:57.682Z,4.1
2023-02-05T15:09:57.674Z,4.1
2023-02-05T15:14:57.691Z,4.1
2023-02-05T15:19:57.725Z,4.1
2023-02-05T15:24:57.694Z,4.1
2023-02-05T15:29:57.688Z,7.6
2023-02-05T15:34:57.821Z,8.4
2023-02-05T15:39:57.709Z,9.6
2023-02-05T15:44:57.683Z,10.6
2023-02-05T15:49:57.672Z,11.7
2023-02-05T15:54:57.688Z,12.3
2023-02-05T15:59:57.713Z,12.3
2023-02-05T16:04:57.697Z,12.2
2023-02-05T16:09:57.685Z,12.2
2023-02-05T16:14:57.688Z,12.6
2023-02-05T16:19:57.782Z,13.4
2023-02-05T16:24:57.679Z,13.6
2023-02-05T16:29:57.670Z,13.5
2023-02-05T16:34:57.680Z,13.5
2023-02-05T16:40:03.695Z,13.6
2023-02-05T16:44:57.693Z,14
2023-02-05T16:49:57.659Z,14.4
2023-02-05T16:54:57.663Z,14.6
2023-02-05T16:59:57.646Z,15.1
2023-02-05T17:04:57.739Z,15.1
2023-02-05T17:09:57.648Z,15.3
2023-02-05T17:14:57.672Z,15
2023-02-05T17:19:57.915Z,14.5
2023-02-05T17:24:57.710Z,14
2023-02-05T17:29:57.711Z,13.7
2023-02-05T17:34:57.674Z,13.4
2023-02-05T17:39:57.654Z,12.3
2023-02-05T17:44:57.693Z,9.7
2023-02-05T17:49:57.659Z,8
2023-02-05T17:54:57.654Z,7
2023-02-05T17:59:57.638Z,6.3
2023-02-05T18:04:57.684Z,5.9
2023-02-05T18:09:57.627Z,5.5
2023-02-05T18:14:57.666Z,5.2
2023-02-05T18:19:57.653Z,4.9
2023-02-05T18:24:57.688Z,4.6
2023-02-05T18:29:57.657Z,4.3
2023-02-05T18:34:57.654Z,4
2023-02-05T18:39:57.647Z,3.8
2023-02-05T18:44:57.680Z,3.6
2023-02-05T18:49:57.657Z,3.4
2023-02-05T18:54:57.661Z,3.3
2023-02-05T18:59:57.652Z,3.1
2023-02-05T19:04:57.679Z,3
2023-02-05T19:09:57.635Z,2.9
2023-02-05T19:14:57.772Z,2.8
2023-02-05T19:19:57.652Z,2.7
2023-02-05T19:24:57.713Z,2.6
2023-02-05T19:29:57.661Z,2.6
2023-02-05T19:34:57.665Z,2.4
2023-02-05T19:39:57.652Z,2.3
2023-02-05T19:44:57.680Z,2.2
2023-02-05T19:49:57.657Z,2
2023-02-05T19:54:57.665Z,2
2023-02-05T19:59:57.650Z,1.9
2023-02-05T20:04:57.682Z,1.9
2023-02-05T20:09:57.658Z,1.8
2023-02-05T20:14:57.664Z,1.7
2023-02-05T20:20:10.282Z,1.6
2023-02-05T20:24:57.682Z,1.6
2023-02-05T20:29:57.640Z,1.6
2023-02-05T20:34:57.633Z,1.6
2023-02-05T20:39:57.803Z,1.7
2023-02-05T20:44:57.720Z,1.7
2023-02-05T20:49:57.688Z,1.5
2023-02-05T20:54:57.642Z,1.4
2023-02-05T20:59:57.642Z,1.4
2023-02-05T21:04:57.653Z,1.3
2023-02-05T21:09:57.630Z,1.2
2023-02-05T21:14:57.653Z,1.1
2023-02-05T21:19:57.632Z,0.9
2023-02-05T21:24:57.682Z,0.9
2023-02-05T21:29:57.740Z,0.8
2023-02-05T21:34:57.640Z,0.8
2023-02-05T21:40:07.654Z,0.8
2023-02-05T21:44:57.674Z,0.8
2023-02-05T21:49:57.634Z,0.8
2023-02-05T21:54:57.651Z,0.7
2023-02-05T21:59:57.686Z,0.5
2023-02-05T22:04:57.664Z,0.4
2023-02-05T22:09:57.748Z,0.3
2023-02-05T22:14:57.639Z,0.2
2023-02-05T22:19:57.632Z,0.1
2023-02-05T22:24:57.682Z,0.2
2023-02-05T22:29:57.644Z,0.1
2023-02-05T22:34:57.668Z,0.2
2023-02-05T22:39:57.629Z,0.2
2023-02-05T22:44:57.778Z,0.1
2023-02-05T22:49:57.640Z,0.1
2023-02-05T22:54:57.659Z,0.1
2023-02-05T22:59:57.668Z,0.1
2023-02-05T23:04:57.687Z,0.1
2023-02-05T23:09:57.668Z,0.1
2023-02-05T23:14:57.661Z,0.1
2023-02-05T23:19:57.656Z,0.2
2023-02-05T23:24:57.835Z,0.2
2023-02-05T23:29:57.669Z,0.3
2023-02-05T23:34:57.678Z,0.3
2023-02-05T23:39:57.763Z,0.3
2023-02-05T23:44:57.850Z,0.3
2023-02-05T23:49:57.667Z,0.3
2023-02-05T23:54:57.691Z,0.3
2023-02-05T23:59:57.679Z,0.3
